createdAt,value
2022-09-05T00:01:27.616Z,75.55
2022-09-05T00:04:23.568Z,75.72
2022-09-05T00:06:58.704Z,75.83
2022-09-05T00:09:43.923Z,76.55
2022-09-05T00:12:13.199Z,75.90
2022-09-05T00:15:17.796Z,76.54
2022-09-05T00:18:42.475Z,76.28
2022-09-05T00:24:31.278Z,75.50
2022-09-05T00:24:35.279Z,75.77
2022-09-05T00:26:52.264Z,75.95
2022-09-05T00:29:39.676Z,76.37
2022-09-05T00:32:23.735Z,76.99
2022-09-05T00:35:06.227Z,76.74
2022-09-05T00:37:38.238Z,77.04
2022-09-05T00:40:18.554Z,76.99
2022-09-05T00:42:49.759Z,76.41
2022-09-05T00:45:25.228Z,76.36
2022-09-05T00:47:59.175Z,75.86
2022-09-05T00:50:31.629Z,75.35
2022-09-05T00:53:06.846Z,75.35
2022-09-05T00:55:41.869Z,75.51
2022-09-05T00:58:19.228Z,75.43
2022-09-05T01:00:52.884Z,75.72
2022-09-05T01:03:33.503Z,76.26
2022-09-05T01:06:11.450Z,76.59
2022-09-05T01:09:07.386Z,76.78
2022-09-05T01:11:57.454Z,76.78
2022-09-05T01:14:55.516Z,76.37
2022-09-05T01:17:39.790Z,76.34
2022-09-05T01:20:20.537Z,76.47
2022-09-05T01:23:18.282Z,76.76
2022-09-05T01:26:01.270Z,76.53
2022-09-05T01:29:16.292Z,76.76
2022-09-05T01:31:29.280Z,76.42
2022-09-05T01:34:02.402Z,76.16
2022-09-05T01:36:42.293Z,76.41
2022-09-05T01:39:18.569Z,76.42
2022-09-05T01:42:09.851Z,76.45
2022-09-05T01:44:49.764Z,77.29
2022-09-05T01:47:30.994Z,77.88
2022-09-05T01:50:07.270Z,77.57
2022-09-05T01:52:59.225Z,77.79
2022-09-05T01:56:03.979Z,78.13
2022-09-05T01:58:45.536Z,77.92
2022-09-05T02:01:25.357Z,78.42
2022-09-05T02:04:14.796Z,78.54
2022-09-05T02:06:49.913Z,77.77
2022-09-05T02:09:38.444Z,78.09
2022-09-05T02:12:10.599Z,78.35
2022-09-05T02:14:41.377Z,78.25
2022-09-05T02:17:27.330Z,78.46
2022-09-05T02:20:23.538Z,79.20
2022-09-05T02:23:25.999Z,78.79
2022-09-05T02:26:03.656Z,78.89
2022-09-05T02:28:39.906Z,78.93
2022-09-05T02:31:20.120Z,78.92
2022-09-05T02:33:57.596Z,79.62
2022-09-05T02:36:36.606Z,78.97
2022-09-05T02:45:00.641Z,78.48
2022-09-05T02:45:14.076Z,78.83
2022-09-05T02:45:17.257Z,78.47
2022-09-05T02:47:51.344Z,77.69
2022-09-05T02:53:19.691Z,76.89
2022-09-05T02:57:35.598Z,76.46
2022-09-05T02:57:37.803Z,76.67
2022-09-05T02:59:35.871Z,76.45
2022-09-05T03:02:25.545Z,77.08
2022-09-05T03:05:04.833Z,77.00
2022-09-05T03:07:51.868Z,77.30
2022-09-05T03:10:53.345Z,77.17
2022-09-05T03:13:54.679Z,77.71
2022-09-05T03:16:59.999Z,78.09
2022-09-05T03:20:15.017Z,78.78
2022-09-05T03:23:11.250Z,78.93
2022-09-05T03:26:09.233Z,79.19
2022-09-05T03:29:12.437Z,79.55
2022-09-05T03:31:53.117Z,79.50
2022-09-05T03:34:46.410Z,79.70
2022-09-05T03:37:49.686Z,79.65
2022-09-05T03:40:37.406Z,79.65
2022-09-05T03:43:32.527Z,79.82
2022-09-05T03:46:11.427Z,80.70
2022-09-05T03:49:20.000Z,80.31
2022-09-05T03:57:13.048Z,80.90
2022-09-05T03:57:26.492Z,81.06
2022-09-05T03:58:18.256Z,81.40
2022-09-05T04:00:49.128Z,81.00
2022-09-05T04:08:08.280Z,81.46
2022-09-05T04:08:28.209Z,81.31
2022-09-05T04:09:37.098Z,81.47
2022-09-05T04:12:16.735Z,81.31
2022-09-05T04:14:48.346Z,81.24
2022-09-05T04:17:25.748Z,80.75
2022-09-05T04:19:56.289Z,80.42
2022-09-05T04:22:29.658Z,80.92
2022-09-05T04:25:03.474Z,80.97
2022-09-05T04:27:39.142Z,81.28
2022-09-05T04:30:38.555Z,81.48
2022-09-05T04:33:19.389Z,81.04
2022-09-05T04:35:56.633Z,80.79
2022-09-05T04:38:37.173Z,81.30
2022-09-05T04:41:09.765Z,81.23
2022-09-05T04:43:42.227Z,81.15
2022-09-05T04:46:19.353Z,81.19
2022-09-05T04:48:54.548Z,81.22
2022-09-05T04:51:56.284Z,81.21
2022-09-05T04:54:34.850Z,81.73
2022-09-05T04:57:23.255Z,81.72
2022-09-05T05:04:26.087Z,81.39
2022-09-05T05:06:08.361Z,82.06
2022-09-05T05:06:10.662Z,81.68
2022-09-05T05:08:39.247Z,82.24
2022-09-05T05:17:08.827Z,82.23
2022-09-05T05:17:54.427Z,82.00
2022-09-05T05:18:13.274Z,81.71
2022-09-05T05:19:48.852Z,81.46
2022-09-05T05:22:35.655Z,81.42
2022-09-05T05:25:03.769Z,82.04
2022-09-05T05:27:35.600Z,82.63
2022-09-05T05:30:05.513Z,82.00
2022-09-05T05:32:45.601Z,82.45
2022-09-05T05:35:15.997Z,82.52
2022-09-05T05:37:46.746Z,82.63
2022-09-05T05:40:21.048Z,82.48
2022-09-05T05:42:49.222Z,82.63
2022-09-05T05:45:19.172Z,81.90
2022-09-05T05:47:50.574Z,82.54
2022-09-05T05:50:33.216Z,82.84
2022-09-05T05:53:33.486Z,82.82
2022-09-05T05:56:48.826Z,82.83
2022-09-05T05:59:33.402Z,82.96
2022-09-05T06:02:28.916Z,82.89
2022-09-05T06:05:25.839Z,83.54
2022-09-05T06:10:03.795Z,84.21
2022-09-05T06:14:58.126Z,83.93
2022-09-05T06:15:10.137Z,84.47
2022-09-05T06:18:20.582Z,84.03
2022-09-05T06:22:10.594Z,84.37
2022-09-05T06:24:41.550Z,83.81
2022-09-05T06:27:33.661Z,83.60
2022-09-05T06:30:07.832Z,84.45
2022-09-05T06:32:58.448Z,84.62
2022-09-05T06:35:40.305Z,84.31
2022-09-05T06:38:27.443Z,84.18
2022-09-05T06:41:04.549Z,84.06
2022-09-05T06:43:38.726Z,84.41
2022-09-05T06:46:54.671Z,83.61
2022-09-05T06:49:30.091Z,83.30
2022-09-05T06:52:37.627Z,83.06
2022-09-05T06:55:42.746Z,83.14
2022-09-05T06:58:49.201Z,82.98
2022-09-05T07:01:35.687Z,83.26
2022-09-05T07:05:18.437Z,83.09
2022-09-05T07:07:16.970Z,82.64
2022-09-05T07:09:55.386Z,81.86
2022-09-05T07:12:30.113Z,82.18
2022-09-05T07:15:09.446Z,82.15
2022-09-05T07:18:09.549Z,81.43
2022-09-05T07:21:17.104Z,81.11
2022-09-05T07:24:08.847Z,80.74
2022-09-05T07:26:54.652Z,80.59
2022-09-05T07:29:28.114Z,79.92
2022-09-05T07:31:57.168Z,79.57
2022-09-05T07:34:28.834Z,79.71
2022-09-05T07:37:15.493Z,79.66
2022-09-05T07:39:49.058Z,79.55
2022-09-05T07:42:21.393Z,79.32
2022-09-05T07:44:56.428Z,79.26
2022-09-05T07:47:28.557Z,79.58
2022-09-05T07:53:18.720Z,78.97
2022-09-05T07:56:54.031Z,78.43
2022-09-05T07:56:59.808Z,78.20
2022-09-05T07:58:25.947Z,78.43
2022-09-05T08:00:58.259Z,77.69
2022-09-05T08:03:29.172Z,77.85
2022-09-05T08:06:00.534Z,77.44
2022-09-05T08:08:31.700Z,77.24
2022-09-05T08:11:23.588Z,77.22
2022-09-05T08:14:35.430Z,77.05
2022-09-05T08:16:50.054Z,76.75
2022-09-05T08:19:57.968Z,76.65
2022-09-05T08:22:52.163Z,76.14
2022-09-05T08:25:23.642Z,75.79
2022-09-05T08:28:06.337Z,74.71
2022-09-05T08:30:40.564Z,74.51
2022-09-05T08:33:14.370Z,73.87
2022-09-05T08:35:45.339Z,73.92
2022-09-05T08:38:14.731Z,73.20
2022-09-05T08:40:48.823Z,72.80
2022-09-05T08:46:19.997Z,73.13
2022-09-05T08:46:46.697Z,71.52
2022-09-05T08:49:46.196Z,71.43
2022-09-05T08:52:15.790Z,72.25
2022-09-05T08:55:06.247Z,72.66
2022-09-05T08:57:56.170Z,72.21
2022-09-05T09:00:27.503Z,71.95
2022-09-05T09:03:10.290Z,70.94
2022-09-05T09:06:13.435Z,70.83
2022-09-05T09:08:54.471Z,70.71
2022-09-05T09:11:29.626Z,70.31
2022-09-05T09:14:41.709Z,70.48
2022-09-05T09:17:21.546Z,70.79
2022-09-05T09:19:52.216Z,70.11
2022-09-05T09:22:33.189Z,70.48
2022-09-05T09:25:11.989Z,70.75
2022-09-05T09:28:46.548Z,70.65
2022-09-05T09:30:57.988Z,70.51
2022-09-05T09:33:33.181Z,69.78
2022-09-05T09:36:07.928Z,69.22
2022-09-05T09:38:44.010Z,70.43
2022-09-05T09:41:32.893Z,68.94
2022-09-05T09:44:23.347Z,68.38
2022-09-05T09:46:53.924Z,68.57
2022-09-05T09:49:36.979Z,68.48
2022-09-05T09:52:44.949Z,67.29
2022-09-05T09:55:47.836Z,66.58
2022-09-05T09:58:32.300Z,66.23
2022-09-05T10:01:34.916Z,63.56
2022-09-05T10:10:33.875Z,61.25
2022-09-05T10:10:57.449Z,61.69
2022-09-05T10:11:37.563Z,62.41
2022-09-05T10:14:35.393Z,60.69
2022-09-05T10:17:22.321Z,59.75
2022-09-05T10:20:12.110Z,61.47
2022-09-05T10:22:52.562Z,60.37
2022-09-05T10:25:40.773Z,60.00
2022-09-05T10:28:13.811Z,60.16
2022-09-05T10:31:52.790Z,58.41
2022-09-05T10:35:09.219Z,57.90
2022-09-05T10:36:29.396Z,56.40
2022-09-05T10:39:06.121Z,56.73
2022-09-05T10:41:45.413Z,57.85
2022-09-05T10:44:15.054Z,58.61
2022-09-05T10:46:57.080Z,55.77
2022-09-05T10:49:27.321Z,55.46
2022-09-05T10:52:17.916Z,56.50
2022-09-05T10:55:14.624Z,56.36
2022-09-05T10:57:57.800Z,53.93
2022-09-05T11:02:22.237Z,54.05
2022-09-05T11:03:50.339Z,52.00
2022-09-05T11:06:25.216Z,54.58
2022-09-05T11:09:00.959Z,56.51
2022-09-05T11:11:34.560Z,55.24
2022-09-05T11:14:07.392Z,54.57
2022-09-05T11:16:56.103Z,54.45
2022-09-05T11:19:30.990Z,52.27
2022-09-05T11:22:19.881Z,52.79
2022-09-05T11:24:55.543Z,52.75
2022-09-05T11:27:30.311Z,53.57
2022-09-05T11:30:03.584Z,52.96
2022-09-05T11:34:24.700Z,51.38
2022-09-05T11:39:54.440Z,49.85
2022-09-05T11:40:08.558Z,48.20
2022-09-05T11:42:19.925Z,48.74
2022-09-05T11:45:16.159Z,50.24
2022-09-05T11:47:53.497Z,50.54
2022-09-05T11:50:44.646Z,51.42
2022-09-05T11:53:46.118Z,50.69
2022-09-05T11:56:49.611Z,50.37
2022-09-05T11:59:45.002Z,49.38
2022-09-05T12:02:27.821Z,49.29
2022-09-05T12:05:48.817Z,49.09
2022-09-05T12:08:06.360Z,50.61
2022-09-05T12:10:48.977Z,50.55
2022-09-05T12:13:32.227Z,50.68
2022-09-05T12:16:08.100Z,49.36
2022-09-05T12:21:38.843Z,47.98
2022-09-05T12:25:16.977Z,48.13
2022-09-05T12:27:40.098Z,47.81
2022-09-05T12:29:59.738Z,45.37
2022-09-05T12:34:39.788Z,46.58
2022-09-05T12:36:11.619Z,45.54
2022-09-05T12:41:33.574Z,44.52
2022-09-05T12:41:43.842Z,45.11
2022-09-05T12:42:10.127Z,46.68
2022-09-05T12:44:44.503Z,48.57
2022-09-05T12:47:18.705Z,46.49
2022-09-05T12:50:02.449Z,48.02
2022-09-05T12:52:42.492Z,46.00
2022-09-05T12:55:12.818Z,47.33
2022-09-05T13:02:29.407Z,45.63
2022-09-05T13:03:03.809Z,47.44
2022-09-05T13:03:33.676Z,44.18
2022-09-05T13:06:06.450Z,44.77
2022-09-05T13:08:44.110Z,44.90
2022-09-05T13:14:49.233Z,44.98
2022-09-05T13:14:58.213Z,44.93
2022-09-05T13:16:56.518Z,45.96
2022-09-05T13:19:32.970Z,46.20
2022-09-05T13:22:03.399Z,45.00
2022-09-05T13:24:35.079Z,44.48
2022-09-05T13:27:12.727Z,45.06
2022-09-05T13:30:59.436Z,46.31
2022-09-05T13:38:02.136Z,45.75
2022-09-05T13:38:20.015Z,46.03
2022-09-05T13:38:48.732Z,45.99
2022-09-05T13:41:26.855Z,47.74
2022-09-05T13:44:00.341Z,45.94
2022-09-05T13:46:57.903Z,44.32
2022-09-05T13:49:31.666Z,44.82
2022-09-05T13:52:26.156Z,45.30
2022-09-05T13:55:04.600Z,43.05
2022-09-05T13:57:36.954Z,45.63
2022-09-05T14:00:28.166Z,48.15
2022-09-05T14:03:42.159Z,43.32
2022-09-05T14:06:45.062Z,42.80
2022-09-05T14:09:37.321Z,42.74
2022-09-05T14:12:32.762Z,42.75
2022-09-05T14:15:11.012Z,44.12
2022-09-05T14:18:02.297Z,42.96
2022-09-05T14:21:16.334Z,44.00
2022-09-05T14:23:53.345Z,45.05
2022-09-05T14:26:26.634Z,46.51
2022-09-05T14:29:02.231Z,45.99
2022-09-05T14:37:07.088Z,44.56
2022-09-05T14:37:49.871Z,42.59
2022-09-05T14:38:04.417Z,42.67
2022-09-05T14:41:15.841Z,41.92
2022-09-05T14:44:11.588Z,44.32
2022-09-05T14:47:35.125Z,41.36
2022-09-05T14:50:17.827Z,40.37
2022-09-05T14:56:13.725Z,39.92
2022-09-05T15:02:41.797Z,39.17
2022-09-05T15:02:53.581Z,41.68
2022-09-05T15:04:40.866Z,42.51
2022-09-05T15:07:16.702Z,44.07
2022-09-05T15:12:20.002Z,39.67
2022-09-05T15:13:17.253Z,41.05
2022-09-05T15:16:00.668Z,40.12
2022-09-05T15:18:32.993Z,40.66
2022-09-05T15:21:33.444Z,36.66
2022-09-05T15:24:13.645Z,39.85
2022-09-05T15:26:53.293Z,40.50
2022-09-05T15:29:24.456Z,39.54
2022-09-05T15:31:59.450Z,39.26
2022-09-05T15:34:38.519Z,40.84
2022-09-05T15:37:29.838Z,35.73
2022-09-05T15:40:02.798Z,35.35
2022-09-05T15:42:33.524Z,38.57
2022-09-05T15:45:10.914Z,34.12
2022-09-05T15:47:42.471Z,35.04
2022-09-05T15:50:21.818Z,35.47
2022-09-05T15:52:55.308Z,34.08
2022-09-05T15:55:26.169Z,34.74
2022-09-05T15:57:57.787Z,34.38
2022-09-05T16:00:39.937Z,36.44
2022-09-05T16:04:12.849Z,36.04
2022-09-05T16:10:38.055Z,36.19
2022-09-05T16:10:50.848Z,36.40
2022-09-05T16:14:39.554Z,35.97
2022-09-05T16:23:12.737Z,34.88
2022-09-05T16:23:24.445Z,37.08
2022-09-05T16:23:29.891Z,36.16
2022-09-05T16:25:52.852Z,36.60
2022-09-05T16:28:23.818Z,37.31
2022-09-05T16:31:00.969Z,37.79
2022-09-05T16:33:32.094Z,38.25
2022-09-05T16:36:03.623Z,37.25
2022-09-05T16:38:49.625Z,38.22
2022-09-05T16:41:24.473Z,38.69
2022-09-05T16:43:55.267Z,38.63
2022-09-05T16:46:28.064Z,38.79
2022-09-05T16:49:00.841Z,39.14
2022-09-05T16:51:35.376Z,39.50
2022-09-05T16:54:11.280Z,39.22
2022-09-05T16:56:43.030Z,39.53
2022-09-05T16:59:15.434Z,39.97
2022-09-05T17:02:05.815Z,40.78
2022-09-05T17:05:03.536Z,40.96
2022-09-05T17:07:59.220Z,41.04
2022-09-05T17:10:29.083Z,39.62
2022-09-05T17:12:57.375Z,40.10
2022-09-05T17:15:27.669Z,40.13
2022-09-05T17:18:20.090Z,40.89
2022-09-05T17:20:49.911Z,40.70
2022-09-05T17:25:14.011Z,40.75
2022-09-05T17:29:36.097Z,40.60
2022-09-05T17:29:45.399Z,41.04
2022-09-05T17:31:58.471Z,41.14
2022-09-05T17:34:50.856Z,41.52
2022-09-05T17:37:42.983Z,41.75
2022-09-05T17:40:38.171Z,42.16
2022-09-05T17:43:07.758Z,42.90
2022-09-05T17:45:45.024Z,43.33
2022-09-05T17:48:16.643Z,43.83
2022-09-05T17:50:51.473Z,43.62
2022-09-05T17:53:25.178Z,46.08
2022-09-05T17:56:12.916Z,49.65
2022-09-05T17:59:02.139Z,47.42
2022-09-05T18:01:32.523Z,47.41
2022-09-05T18:04:17.322Z,48.71
2022-09-05T18:06:59.563Z,50.81
2022-09-05T18:09:58.976Z,51.33
2022-09-05T18:13:12.658Z,51.29
2022-09-05T18:16:18.336Z,51.97
2022-09-05T18:19:27.686Z,52.52
2022-09-05T18:22:04.224Z,52.34
2022-09-05T18:24:40.081Z,52.76
2022-09-05T18:30:10.089Z,53.39
2022-09-05T18:32:43.811Z,53.85
2022-09-05T18:35:27.943Z,53.82
2022-09-05T18:38:34.457Z,54.05
2022-09-05T18:41:21.787Z,53.89
2022-09-05T18:44:12.490Z,54.20
2022-09-05T18:46:46.111Z,54.04
2022-09-05T18:50:09.879Z,54.41
2022-09-05T18:52:10.449Z,54.29
2022-09-05T18:54:42.427Z,54.34
2022-09-05T18:57:27.331Z,54.92
2022-09-05T19:00:00.060Z,54.94
2022-09-05T19:02:49.869Z,54.96
2022-09-05T19:05:28.733Z,55.13
2022-09-05T19:07:59.474Z,55.26
2022-09-05T19:10:34.563Z,55.28
2022-09-05T19:13:11.063Z,56.09
2022-09-05T19:15:48.248Z,55.96
2022-09-05T19:18:27.417Z,56.27
2022-09-05T19:21:12.183Z,56.63
2022-09-05T19:23:50.044Z,56.82
2022-09-05T19:26:20.345Z,56.69
2022-09-05T19:35:45.438Z,56.78
2022-09-05T19:36:46.724Z,56.28
2022-09-05T19:36:55.590Z,56.03
2022-09-05T19:37:26.103Z,56.33
2022-09-05T19:47:39.853Z,57.49
2022-09-05T19:47:49.924Z,58.08
2022-09-05T19:48:28.063Z,57.75
2022-09-05T19:50:57.194Z,58.19
2022-09-05T19:53:25.904Z,58.29
2022-09-05T19:55:54.729Z,58.67
2022-09-05T19:58:27.077Z,58.83
2022-09-05T20:01:03.725Z,59.14
2022-09-05T20:03:38.895Z,58.98
2022-09-05T20:06:29.592Z,58.83
2022-09-05T20:09:09.501Z,59.75
2022-09-05T20:11:46.459Z,59.40
2022-09-05T20:14:25.186Z,60.18
2022-09-05T20:16:55.907Z,59.62
2022-09-05T20:19:30.860Z,59.91
2022-09-05T20:22:37.108Z,59.97
2022-09-05T20:24:52.759Z,60.17
2022-09-05T20:27:27.524Z,59.50
2022-09-05T20:29:59.797Z,59.91
2022-09-05T20:32:38.734Z,59.77
2022-09-05T20:38:06.842Z,60.27
2022-09-05T20:43:16.873Z,60.82
2022-09-05T20:43:36.697Z,60.94
2022-09-05T20:44:39.802Z,60.53
2022-09-05T20:51:31.559Z,60.49
2022-09-05T20:54:06.677Z,61.17
2022-09-05T20:54:21.743Z,61.01
2022-09-05T20:55:42.554Z,61.30
2022-09-05T20:58:13.411Z,61.07
2022-09-05T21:01:15.429Z,60.43
2022-09-05T21:03:38.021Z,60.87
2022-09-05T21:06:23.695Z,60.83
2022-09-05T21:08:52.923Z,61.56
2022-09-05T21:11:30.595Z,61.52
2022-09-05T21:14:01.937Z,61.72
2022-09-05T21:16:33.319Z,61.98
2022-09-05T21:19:03.150Z,62.07
2022-09-05T21:21:32.915Z,61.91
2022-09-05T21:24:15.929Z,61.51
2022-09-05T21:26:49.673Z,62.06
2022-09-05T21:29:26.469Z,62.23
2022-09-05T21:32:02.553Z,62.64
2022-09-05T21:34:45.073Z,62.21
2022-09-05T21:37:14.893Z,61.81
2022-09-05T21:39:59.318Z,61.77
2022-09-05T21:47:33.845Z,61.83
2022-09-05T21:47:42.995Z,62.19
2022-09-05T21:48:08.000Z,62.63
2022-09-05T21:50:40.158Z,62.91
2022-09-05T21:56:37.288Z,63.08
2022-09-05T21:59:14.781Z,63.03
2022-09-05T21:59:32.964Z,63.04
2022-09-05T22:01:52.581Z,62.76
2022-09-05T22:04:22.002Z,63.26
2022-09-05T22:06:54.102Z,63.17
2022-09-05T22:09:23.300Z,63.21
2022-09-05T22:11:51.585Z,63.74
2022-09-05T22:14:20.693Z,63.62
2022-09-05T22:16:50.414Z,63.65
2022-09-05T22:19:22.791Z,64.17
2022-09-05T22:21:56.011Z,63.94
2022-09-05T22:24:26.195Z,63.94
2022-09-05T22:27:12.714Z,64.12
2022-09-05T22:29:41.365Z,64.35
2022-09-05T22:32:09.836Z,64.45
2022-09-05T22:34:37.858Z,65.17
2022-09-05T22:37:07.634Z,65.31
2022-09-05T22:39:36.321Z,65.28
2022-09-05T22:42:10.238Z,65.44
2022-09-05T22:44:40.141Z,65.49
2022-09-05T22:47:09.445Z,65.63
2022-09-05T22:49:37.946Z,65.90
2022-09-05T22:52:08.841Z,65.90
2022-09-05T22:54:37.195Z,66.16
2022-09-05T22:57:05.634Z,66.02
2022-09-05T22:59:33.705Z,66.14
2022-09-05T23:02:01.813Z,65.98
2022-09-05T23:04:30.020Z,66.30
2022-09-05T23:07:02.317Z,66.34
2022-09-05T23:09:31.674Z,66.64
2022-09-05T23:11:59.690Z,66.76
2022-09-05T23:14:27.730Z,67.01
2022-09-05T23:16:56.131Z,67.20
2022-09-05T23:19:24.144Z,67.11
2022-09-05T23:21:52.214Z,67.63
2022-09-05T23:24:20.226Z,67.57
2022-09-05T23:26:49.601Z,67.98
2022-09-05T23:29:17.625Z,68.11
2022-09-05T23:31:45.702Z,68.12
2022-09-05T23:34:13.750Z,68.64
2022-09-05T23:36:41.812Z,68.92
2022-09-05T23:39:10.443Z,68.90
2022-09-05T23:41:38.466Z,68.99
2022-09-05T23:44:07.929Z,68.82
2022-09-05T23:46:37.407Z,69.25
2022-09-05T23:49:05.438Z,69.10
2022-09-05T23:51:33.508Z,69.26
2022-09-05T23:54:01.543Z,68.97
2022-09-05T23:56:29.618Z,69.59
2022-09-05T23:58:57.620Z,69.70
